Time;durP1;ratioP1;P1;durP2;ratioP2;P2;SDS_P1;SDS_P2;PMS_P1;PMS_P2;Temp;Humidity;BMP_temperature;BMP_pressure;BME280_temperature;BME280_humidity;BME280_pressure;Samples;Min_cycle;Max_cycle;Signal;HPM_P1;HPM_P2
2022/06/25 00:01:15;;;;;;;7.70;4.60;;;;;;;18.76;73.02;98409.73;105169;1271;73356;-72
2022/06/25 00:03:42;;;;;;;6.20;4.80;;;;;;;18.73;73.22;98410.05;104958;1274;61447;-72
2022/06/25 00:06:09;;;;;;;5.80;5.30;;;;;;;18.70;73.17;98406.38;105217;1271;61160;-72
2022/06/25 00:08:37;;;;;;;5.90;4.60;;;;;;;18.67;73.59;98405.83;105218;1271;74829;-72
2022/06/25 00:11:06;;;;;;;5.70;5.20;;;;;;;18.65;73.75;98409.14;105327;1271;70687;-72
2022/06/25 00:13:34;;;;;;;7.90;4.80;;;;;;;18.62;73.85;98406.89;105255;1271;73131;-73
2022/06/25 00:16:02;;;;;;;5.40;4.90;;;;;;;18.58;74.12;98402.48;105314;1270;61383;-72
2022/06/25 00:18:28;;;;;;;5.50;5.00;;;;;;;18.56;74.34;98405.55;105217;1271;61350;-73
2022/06/25 00:20:55;;;;;;;5.50;4.90;;;;;;;18.55;74.50;98409.67;105210;1271;76377;-73
2022/06/25 00:23:21;;;;;;;5.80;4.90;;;;;;;18.54;74.73;98406.77;105183;1271;61306;-72
2022/06/25 00:25:48;;;;;;;5.20;4.70;;;;;;;18.50;74.81;98402.66;105221;1270;74183;-72
2022/06/25 00:28:14;;;;;;;7.90;5.10;;;;;;;18.47;75.06;98408.52;105210;1271;61387;-73
2022/06/25 00:30:41;;;;;;;5.80;4.90;;;;;;;18.43;75.57;98403.52;104976;1274;61512;-74
2022/06/25 00:33:07;;;;;;;8.50;5.30;;;;;;;18.41;75.51;98402.17;105227;1271;61314;-73
2022/06/25 00:35:34;;;;;;;6.90;5.50;;;;;;;18.39;76.00;98401.13;105233;1271;61403;-71
2022/06/25 00:38:01;;;;;;;5.60;5.10;;;;;;;18.36;76.19;98397.11;105220;1271;61408;-72
2022/06/25 00:40:27;;;;;;;6.70;5.20;;;;;;;18.33;76.37;98402.70;105209;1271;61604;-72
2022/06/25 00:42:54;;;;;;;7.60;5.50;;;;;;;18.29;76.74;98402.77;105229;1271;61459;-72
2022/06/25 00:45:20;;;;;;;6.30;5.70;;;;;;;18.25;76.85;98403.36;105222;1271;76434;-72
2022/06/25 00:47:48;;;;;;;6.00;5.30;;;;;;;18.21;77.44;98398.77;105219;1271;61326;-74
2022/06/25 00:50:14;;;;;;;5.70;5.00;;;;;;;18.18;77.82;98398.36;105188;1271;73127;-73
2022/06/25 00:52:42;;;;;;;6.30;5.40;;;;;;;18.14;78.28;98400.20;105207;1271;61372;-72
2022/06/25 00:55:11;;;;;;;7.70;5.00;;;;;;;18.12;78.50;98402.45;105184;1271;61300;-72
2022/06/25 00:57:43;;;;;;;6.20;5.60;;;;;;;18.09;78.84;98399.70;105341;1270;75665;-73
2022/06/25 01:00:14;;;;;;;9.10;5.60;;;;;;;18.07;79.10;98400.70;105336;1271;69328;-72
2022/06/25 01:02:42;;;;;;;6.00;5.40;;;;;;;18.04;79.33;98399.38;105214;1271;73531;-72
2022/06/25 01:05:11;;;;;;;7.70;6.10;;;;;;;18.03;79.50;98403.24;105236;1271;61386;-71
2022/06/25 01:07:40;;;;;;;6.70;5.50;;;;;;;18.01;79.60;98408.66;105268;1271;62103;-72
2022/06/25 01:10:08;;;;;;;6.90;5.40;;;;;;;17.98;79.84;98410.92;105194;1271;73413;-71
2022/06/25 01:12:35;;;;;;;6.00;5.40;;;;;;;17.95;80.04;98415.73;105302;1271;69911;-71
2022/06/25 01:15:04;;;;;;;6.90;5.20;;;;;;;17.94;80.39;98413.16;105209;1271;74457;-71
2022/06/25 01:17:31;;;;;;;7.00;5.30;;;;;;;17.94;80.40;98408.52;105339;1271;61322;-72
2022/06/25 01:19:58;;;;;;;8.10;5.70;;;;;;;17.95;80.51;98411.27;105191;1271;61896;-71
2022/06/25 01:22:25;;;;;;;6.90;5.10;;;;;;;17.94;80.53;98414.75;105251;1271;76312;-71
2022/06/25 01:24:51;;;;;;;6.40;5.10;;;;;;;17.95;80.96;98420.10;105248;1274;69473;-71
2022/06/25 01:27:18;;;;;;;5.80;5.30;;;;;;;17.94;81.04;98422.13;105221;1270;61329;-72
2022/06/25 01:29:45;;;;;;;5.70;5.20;;;;;;;17.93;80.82;98420.66;105224;1270;61300;-72
2022/06/25 01:32:11;;;;;;;7.50;5.80;;;;;;;17.92;81.12;98424.17;105248;1271;61294;-72
2022/06/25 01:34:38;;;;;;;7.40;5.80;;;;;;;17.92;81.50;98425.45;105213;1271;74714;-72
2022/06/25 01:37:05;;;;;;;7.30;5.80;;;;;;;17.91;81.30;98420.67;105225;1271;69049;-73
2022/06/25 01:39:31;;;;;;;6.30;5.20;;;;;;;17.89;81.22;98417.80;105199;1269;61387;-72
2022/06/25 01:41:58;;;;;;;6.00;5.40;;;;;;;17.87;81.48;98418.20;105204;1271;61236;-72
2022/06/25 01:44:25;;;;;;;8.70;6.00;;;;;;;17.86;81.53;98424.10;105232;1271;61242;-72
2022/06/25 01:46:52;;;;;;;6.80;6.10;;;;;;;17.84;81.48;98425.19;105220;1274;76382;-72
2022/06/25 01:49:18;;;;;;;6.50;5.50;;;;;;;17.82;81.80;98426.88;105232;1272;61293;-73
2022/06/25 01:51:45;;;;;;;6.60;6.00;;;;;;;17.79;81.68;98429.48;105201;1271;61393;-72
2022/06/25 01:54:12;;;;;;;7.00;4.90;;;;;;;17.77;81.84;98430.96;105238;1271;61423;-73
2022/06/25 01:56:38;;;;;;;6.40;5.80;;;;;;;17.74;81.78;98432.88;105227;1271;61351;-73
2022/06/25 01:59:05;;;;;;;6.40;5.60;;;;;;;17.71;81.95;98440.69;105238;1271;61278;-73
2022/06/25 02:01:32;;;;;;;8.90;5.50;;;;;;;17.69;81.94;98444.23;105224;1271;62707;-73
2022/06/25 02:03:59;;;;;;;7.30;5.90;;;;;;;17.66;81.96;98442.85;105230;1271;73404;-72
2022/06/25 02:06:25;;;;;;;5.90;5.20;;;;;;;17.64;82.12;98447.81;105177;1271;61332;-72
2022/06/25 02:08:52;;;;;;;8.90;5.70;;;;;;;17.61;82.15;98447.87;105004;1274;61390;-72
2022/06/25 02:11:19;;;;;;;8.50;6.40;;;;;;;17.60;82.32;98450.16;105200;1271;76173;-72
2022/06/25 02:13:45;;;;;;;7.60;6.00;;;;;;;17.60;82.29;98451.80;105265;1271;69148;-72
2022/06/25 02:16:12;;;;;;;6.60;5.50;;;;;;;17.60;82.13;98453.42;105185;1271;74514;-72
2022/06/25 02:18:38;;;;;;;9.10;5.40;;;;;;;17.60;82.31;98456.32;105216;1271;61262;-72
2022/06/25 02:21:05;;;;;;;6.60;5.60;;;;;;;17.59;82.17;98456.60;105239;1271;61945;-73
2022/06/25 02:23:32;;;;;;;6.30;5.70;;;;;;;17.58;82.55;98460.62;105237;1270;61273;-72
2022/06/25 02:25:58;;;;;;;8.70;5.50;;;;;;;17.58;82.50;98464.56;105206;1271;69234;-72
2022/06/25 02:28:25;;;;;;;6.70;5.20;;;;;;;17.59;82.64;98462.85;105197;1271;61266;-72
2022/06/25 02:30:51;;;;;;;6.00;5.40;;;;;;;17.60;82.65;98457.91;105192;1269;61382;-72
2022/06/25 02:33:19;;;;;;;8.40;6.10;;;;;;;17.61;82.71;98457.64;105197;1271;62091;-71
2022/06/25 02:35:46;;;;;;;6.30;5.70;;;;;;;17.62;82.76;98459.14;105236;1271;75124;-71
2022/06/25 02:38:14;;;;;;;5.90;5.30;;;;;;;17.63;82.79;98459.89;105205;1271;69427;-72
2022/06/25 02:40:40;;;;;;;7.10;5.90;;;;;;;17.64;82.78;98460.15;105203;1271;73367;-72
2022/06/25 02:43:07;;;;;;;7.10;5.80;;;;;;;17.66;82.60;98463.15;105190;1271;61268;-72
2022/06/25 02:45:33;;;;;;;6.80;6.20;;;;;;;17.69;82.90;98463.98;105188;1271;61287;-72
2022/06/25 02:48:00;;;;;;;9.20;5.80;;;;;;;17.70;82.94;98465.30;105173;1271;76226;-73
2022/06/25 02:50:27;;;;;;;6.60;5.90;;;;;;;17.72;82.79;98466.52;105169;1271;61262;-74
2022/06/25 02:52:54;;;;;;;6.40;5.80;;;;;;;17.75;82.67;98468.18;105184;1270;73456;-72
2022/06/25 02:58:54;;;;;;;6.00;5.50;;;;;;;17.78;82.66;98472.92;105216;1271;61422;-73
2022/06/25 03:00:53;;;;;;;5.80;5.20;;;;;;;17.90;82.33;98472.96;105184;1271;76390;-72
2022/06/25 03:03:19;;;;;;;7.70;5.80;;;;;;;17.96;82.18;98475.17;105246;1271;70139;-71
2022/06/25 03:05:46;;;;;;;7.50;6.70;;;;;;;18.00;82.24;98476.31;104986;1272;61368;-71
2022/06/25 03:08:13;;;;;;;7.20;6.50;;;;;;;18.04;82.00;98475.23;104969;1271;331319;-73
2022/06/25 03:10:40;;;;;;;7.10;6.00;;;;;;;18.06;81.81;98478.19;105263;1271;61400;-73
2022/06/25 03:13:07;;;;;;;7.80;6.00;;;;;;;18.09;81.60;98477.38;105190;1271;61271;-73
2022/06/25 03:15:33;;;;;;;8.70;7.80;;;;;;;18.12;81.61;98474.77;105205;1271;70865;-73
2022/06/25 03:18:00;;;;;;;6.40;5.30;;;;;;;18.13;81.38;98474.42;105206;1271;74394;-74
2022/06/25 03:20:26;;;;;;;8.10;6.10;;;;;;;18.14;81.29;98474.10;105193;1271;61225;-73
2022/06/25 03:22:53;;;;;;;6.80;6.00;;;;;;;18.16;81.14;98472.86;105217;1271;61377;-71
2022/06/25 03:25:19;;;;;;;7.50;5.90;;;;;;;18.20;81.09;98474.42;105198;1271;61422;-72
2022/06/25 03:27:46;;;;;;;10.20;6.60;;;;;;;18.24;80.84;98473.79;104988;1271;69829;-72
2022/06/25 03:30:13;;;;;;;6.80;6.00;;;;;;;18.33;80.68;98473.04;105206;1271;73698;-72
2022/06/25 03:32:40;;;;;;;8.60;6.10;;;;;;;18.82;80.00;98470.63;104999;1274;61479;-72
2022/06/25 03:35:07;;;;;;;8.60;5.90;;;;;;;19.72;77.57;98461.68;105218;1271;61390;-72
2022/06/25 03:37:33;;;;;;;6.20;5.60;;;;;;;20.43;75.28;98462.35;105227;1271;76128;-72
2022/06/25 03:40:00;;;;;;;5.60;4.90;;;;;;;21.24;73.13;98457.96;105199;1271;69193;-72
2022/06/25 03:42:27;;;;;;;5.80;5.00;;;;;;;22.07;71.30;98460.55;105231;1271;73460;-71
2022/06/25 03:44:53;;;;;;;5.50;5.10;;;;;;;22.76;69.30;98458.61;105203;1271;61297;-72
2022/06/25 03:47:20;;;;;;;5.70;4.80;;;;;;;23.18;67.74;98460.31;105198;1269;61380;-72
2022/06/25 03:49:47;;;;;;;6.60;5.10;;;;;;;23.53;65.84;98457.53;105243;1271;61303;-71
2022/06/25 03:52:13;;;;;;;6.60;5.40;;;;;;;23.85;64.46;98459.27;105213;1271;70417;-72
2022/06/25 03:54:40;;;;;;;7.60;5.30;;;;;;;24.16;63.08;98462.89;105225;1270;61396;-73
2022/06/25 03:57:06;;;;;;;7.00;5.40;;;;;;;24.61;61.54;98468.23;105253;1271;61278;-72
2022/06/25 03:59:33;;;;;;;7.20;5.10;;;;;;;25.04;60.26;98469.14;105218;1271;61190;-74
2022/06/25 04:01:59;;;;;;;9.30;5.30;;;;;;;25.29;58.97;98468.02;105210;1270;76513;-72
2022/06/25 04:04:26;;;;;;;6.20;4.80;;;;;;;25.12;58.76;98474.23;105262;1271;70379;-71
2022/06/25 04:06:52;;;;;;;5.50;5.00;;;;;;;24.67;58.93;98474.34;105216;1271;61557;-72
2022/06/25 04:09:19;;;;;;;6.00;4.70;;;;;;;24.06;59.35;98476.52;105198;1271;61417;-73
2022/06/25 04:11:46;;;;;;;6.90;4.90;;;;;;;23.45;59.64;98480.39;105241;1269;61368;-71
2022/06/25 04:14:12;;;;;;;5.30;4.80;;;;;;;22.94;60.51;98481.23;105205;1271;61261;-74
2022/06/25 04:16:39;;;;;;;5.60;5.10;;;;;;;22.48;61.18;98485.11;105204;1269;69094;-72
2022/06/25 04:19:05;;;;;;;6.00;5.40;;;;;;;22.10;61.80;98488.59;105210;1271;61303;-72
2022/06/25 04:21:32;;;;;;;7.10;6.00;;;;;;;21.73;62.44;98484.39;105194;1269;61299;-73
2022/06/25 04:23:59;;;;;;;6.60;5.30;;;;;;;21.38;63.10;98490.53;105233;1271;61929;-73
2022/06/25 04:26:25;;;;;;;7.30;5.60;;;;;;;21.09;63.84;98491.45;105216;1271;75237;-73
2022/06/25 04:29:04;;;;;;;9.10;6.10;;;;;;;20.85;64.52;98490.20;105223;1271;70327;-73
2022/06/25 04:31:36;;;;;;;6.40;5.10;;;;;;;20.58;65.43;98494.77;105245;1271;73862;-72
2022/06/25 04:34:03;;;;;;;6.30;5.60;;;;;;;20.38;66.24;98492.70;105026;1271;61260;-73
2022/06/25 04:36:30;;;;;;;7.70;5.20;;;;;;;20.29;66.80;98495.01;105232;1270;61344;-72
2022/06/25 04:38:57;;;;;;;5.60;5.10;;;;;;;20.22;67.21;98500.39;104982;1271;76168;-73
2022/06/25 04:41:23;;;;;;;6.50;5.50;;;;;;;20.14;67.73;98504.34;105228;1271;61328;-72
2022/06/25 04:43:50;;;;;;;6.00;5.30;;;;;;;20.08;68.03;98508.81;105205;1271;61275;-74
2022/06/25 04:46:16;;;;;;;8.00;6.00;;;;;;;20.06;68.54;98507.08;105168;1271;61410;-73
2022/06/25 04:48:43;;;;;;;7.70;5.60;;;;;;;20.09;68.61;98504.17;105194;1271;61256;-72
2022/06/25 04:51:09;;;;;;;6.20;5.60;;;;;;;20.13;68.90;98507.30;105224;1271;76157;-72
2022/06/25 04:53:55;;;;;;;5.90;5.30;;;;;;;20.19;68.79;98504.30;105241;1271;68208;-72
2022/06/25 04:56:25;;;;;;;5.90;5.30;;;;;;;20.27;68.91;98500.46;105232;1271;73176;-73
2022/06/25 04:58:53;;;;;;;7.10;5.40;;;;;;;20.41;69.24;98504.35;105151;1271;61300;-72
2022/06/25 05:01:20;;;;;;;6.30;5.70;;;;;;;20.54;69.11;98502.10;105218;1271;61358;-73
2022/06/25 05:03:47;;;;;;;5.70;5.20;;;;;;;20.63;68.81;98508.70;105231;1269;75222;-72
2022/06/25 05:06:14;;;;;;;6.70;6.00;;;;;;;20.72;68.66;98509.23;105048;1271;67325;-72
2022/06/25 05:08:42;;;;;;;6.30;5.70;;;;;;;20.79;68.74;98508.55;105236;1271;73692;-71
2022/06/25 05:11:08;;;;;;;5.50;5.10;;;;;;;20.89;68.47;98513.19;105267;1270;61298;-72
2022/06/25 05:13:35;;;;;;;6.10;5.60;;;;;;;21.00;68.03;98511.54;105241;1271;61305;-73
2022/06/25 05:16:02;;;;;;;7.50;5.50;;;;;;;21.01;67.58;98506.11;105218;1269;75724;-72
2022/06/25 05:18:28;;;;;;;7.00;5.80;;;;;;;21.02;67.61;98502.59;105230;1271;68826;-71
2022/06/25 05:20:55;;;;;;;5.70;5.10;;;;;;;21.11;67.58;98506.11;105157;1271;72722;-72
2022/06/25 05:23:22;;;;;;;9.20;5.30;;;;;;;21.25;67.28;98509.52;105192;1269;61269;-71
2022/06/25 05:25:48;;;;;;;7.20;5.20;;;;;;;21.43;67.11;98508.99;105225;1271;61368;-72
2022/06/25 05:28:16;;;;;;;5.90;5.20;;;;;;;21.75;66.30;98511.39;105196;1271;73578;-74
2022/06/25 05:30:43;;;;;;;6.20;5.40;;;;;;;22.26;65.37;98508.97;105243;1270;69307;-74
2022/06/25 05:33:10;;;;;;;5.50;5.00;;;;;;;22.63;64.76;98509.71;105154;1271;74289;-73
2022/06/25 05:35:37;;;;;;;5.70;5.20;;;;;;;23.00;63.63;98505.44;105202;1271;61393;-73
2022/06/25 05:38:06;;;;;;;8.10;5.20;;;;;;;23.69;61.75;98499.08;105204;1271;61294;-74
2022/06/25 05:40:32;;;;;;;7.10;5.50;;;;;;;24.35;60.44;98506.67;105267;1271;75256;-72
2022/06/25 05:42:59;;;;;;;6.40;4.80;;;;;;;24.95;59.31;98509.95;105019;1272;69269;-71
2022/06/25 05:45:25;;;;;;;5.10;4.60;;;;;;;25.60;57.64;98507.05;105171;1271;61185;-72
2022/06/25 05:47:52;;;;;;;6.10;4.80;;;;;;;26.18;55.81;98508.77;105006;1271;61277;-72
2022/06/25 05:50:19;;;;;;;6.20;4.80;;;;;;;26.75;54.41;98508.80;105196;1271;61318;-73
2022/06/25 05:52:45;;;;;;;6.90;4.90;;;;;;;27.29;53.29;98502.41;105228;1271;74250;-70
2022/06/25 05:55:12;;;;;;;5.50;4.30;;;;;;;27.72;52.10;98500.90;105191;1271;69712;-70
2022/06/25 05:57:39;;;;;;;6.70;5.00;;;;;;;28.11;49.68;98500.20;105429;1270;73171;-71
2022/06/25 06:00:08;;;;;;;4.90;4.50;;;;;;;28.22;48.78;98501.02;105217;1271;61402;-71
2022/06/25 06:02:35;;;;;;;5.00;4.50;;;;;;;28.26;48.07;98506.38;105278;1271;61344;-71
2022/06/25 06:05:02;;;;;;;5.50;4.80;;;;;;;28.27;48.56;98509.11;105098;1271;61314;-71
2022/06/25 06:07:29;;;;;;;6.80;5.20;;;;;;;28.27;48.19;98510.97;105282;1271;69265;-71
2022/06/25 06:09:56;;;;;;;5.80;5.00;;;;;;;27.92;48.24;98508.11;105232;1270;73193;-70
2022/06/25 06:12:23;;;;;;;6.70;4.60;;;;;;;27.64;48.99;98506.11;105210;1271;61405;-71
2022/06/25 06:14:49;;;;;;;7.60;4.90;;;;;;;27.53;48.75;98508.61;104979;1273;61891;-70
2022/06/25 06:17:16;;;;;;;5.80;5.00;;;;;;;27.48;49.04;98509.42;105195;1271;61273;-71
2022/06/25 06:19:42;;;;;;;5.20;4.60;;;;;;;27.70;49.04;98507.75;105234;1271;70520;-70
2022/06/25 06:22:09;;;;;;;5.00;4.40;;;;;;;27.88;48.25;98511.17;105256;1270;73313;-71
2022/06/25 06:24:35;;;;;;;4.70;4.40;;;;;;;27.97;47.30;98514.42;105227;1269;61352;-71
2022/06/25 06:27:02;;;;;;;4.50;4.10;;;;;;;27.90;46.10;98512.21;105192;1271;61229;-71
2022/06/25 06:29:29;;;;;;;6.40;4.50;;;;;;;27.77;45.67;98508.02;105239;1271;76450;-70
2022/06/25 06:31:56;;;;;;;4.80;4.40;;;;;;;27.56;45.72;98505.42;105257;1271;70454;-70
2022/06/25 06:34:23;;;;;;;4.90;4.40;;;;;;;27.53;46.13;98504.29;105192;1270;74419;-70
2022/06/25 06:36:49;;;;;;;4.70;4.20;;;;;;;27.66;46.29;98506.73;105198;1269;61284;-70
2022/06/25 06:39:16;;;;;;;8.50;5.60;;;;;;;27.97;46.01;98517.70;105211;1271;61223;-70
2022/06/25 06:41:42;;;;;;;4.40;4.00;;;;;;;28.29;45.46;98524.57;105215;1270;75094;-70
2022/06/25 06:44:09;;;;;;;7.00;4.70;;;;;;;28.59;44.95;98530.13;105196;1271;61402;-70
2022/06/25 06:46:35;;;;;;;6.80;4.70;;;;;;;28.97;44.76;98536.58;105202;1271;61316;-70
2022/06/25 06:49:03;;;;;;;4.80;4.30;;;;;;;29.29;43.86;98539.37;105166;1271;61365;-70
2022/06/25 06:51:30;;;;;;;4.90;4.30;;;;;;;29.57;43.54;98542.94;104897;1274;61278;-71
2022/06/25 06:53:57;;;;;;;4.90;4.60;;;;;;;29.75;42.93;98547.07;105071;1271;75762;-70
2022/06/25 06:56:23;;;;;;;6.70;4.10;;;;;;;29.88;42.68;98542.48;105123;1271;67691;-70
2022/06/25 06:58:50;;;;;;;6.80;4.60;;;;;;;30.07;42.53;98542.27;105093;1271;61299;-70
2022/06/25 07:01:16;;;;;;;8.00;4.70;;;;;;;30.22;42.40;98543.43;105063;1271;61333;-70
2022/06/25 07:03:43;;;;;;;4.60;4.20;;;;;;;30.31;42.19;98547.50;105091;1271;61173;-70
2022/06/25 07:06:10;;;;;;;5.00;4.50;;;;;;;30.44;42.45;98551.64;105118;1271;76778;-70
2022/06/25 07:08:36;;;;;;;5.10;4.70;;;;;;;30.54;42.23;98548.98;105138;1271;70338;-70
2022/06/25 07:11:28;;;;;;;4.50;4.20;;;;;;;30.48;41.88;98548.97;105162;1271;72627;-70
2022/06/25 07:13:52;;;;;;;4.80;4.40;;;;;;;30.55;42.11;98546.14;105268;1271;61324;-70
2022/06/25 07:16:19;;;;;;;5.50;5.00;;;;;;;30.65;41.77;98550.37;105237;1271;61210;-69
2022/06/25 07:18:46;;;;;;;7.00;4.80;;;;;;;30.88;41.69;98551.73;105181;1271;75335;-69
2022/06/25 07:21:12;;;;;;;4.80;4.40;;;;;;;31.16;41.39;98554.23;105225;1271;69264;-70
2022/06/25 07:23:39;;;;;;;4.50;3.80;;;;;;;31.28;40.98;98555.17;105224;1271;73516;-70
2022/06/25 07:26:05;;;;;;;4.10;3.80;;;;;;;31.42;40.34;98556.45;105221;1271;61284;-70
2022/06/25 07:28:32;;;;;;;5.20;3.90;;;;;;;31.37;39.83;98554.35;105228;1271;63010;-69
2022/06/25 07:30:58;;;;;;;5.00;4.10;;;;;;;31.38;40.00;98555.48;105207;1271;75341;-70
2022/06/25 07:33:25;;;;;;;5.50;4.10;;;;;;;31.60;39.75;98555.83;104986;1271;61684;-72
2022/06/25 07:35:52;;;;;;;4.50;4.10;;;;;;;31.58;38.88;98554.58;105241;1271;61373;-69
2022/06/25 07:38:18;;;;;;;5.60;4.00;;;;;;;31.20;39.04;98552.73;105292;1271;61301;-69
2022/06/25 07:40:45;;;;;;;4.60;4.10;;;;;;;30.80;39.11;98553.70;105043;1271;61503;-71
2022/06/25 07:43:11;;;;;;;4.40;4.00;;;;;;;30.60;39.34;98552.12;105266;1271;61300;-74
2022/06/25 07:45:38;;;;;;;5.20;3.80;;;;;;;30.46;39.78;98548.93;105265;1271;61424;-74
2022/06/25 07:48:04;;;;;;;4.30;4.00;;;;;;;30.36;40.32;98546.89;105250;1271;72557;-75
2022/06/25 07:53:16;;;;;;;4.90;3.70;;;;;;;30.04;39.50;98544.05;105271;1269;61169;-75
2022/06/25 07:55:42;;;;;;;4.50;4.20;;;;;;;29.69;40.06;98546.65;105243;1271;61246;-76
2022/06/25 07:58:09;;;;;;;5.10;4.20;;;;;;;29.54;40.45;98546.52;105239;1270;61253;-75
2022/06/25 08:00:35;;;;;;;4.00;3.70;;;;;;;29.44;40.21;98545.02;105225;1271;61362;-74
2022/06/25 08:03:03;;;;;;;4.40;3.50;;;;;;;29.38;39.94;98547.10;105229;1271;61306;-74
2022/06/25 08:05:29;;;;;;;4.00;3.70;;;;;;;29.36;39.75;98545.58;105095;1271;61382;-76
2022/06/25 08:07:56;;;;;;;4.90;3.50;;;;;;;29.34;40.06;98542.35;105248;1271;74385;-74
2022/06/25 08:10:23;;;;;;;4.20;3.60;;;;;;;29.45;40.09;98541.64;105230;1271;70384;-74
2022/06/25 08:12:49;;;;;;;5.60;4.20;;;;;;;29.57;39.85;98539.02;105235;1271;61404;-74
2022/06/25 08:15:19;;;;;;;3.00;2.70;;;;;;;29.55;38.79;98544.84;105256;1271;61310;-75
2022/06/25 08:17:46;;;;;;;5.60;2.80;;;;;;;29.30;36.78;98540.09;105216;1270;62369;-75
2022/06/25 08:20:13;;;;;;;2.90;2.70;;;;;;;29.05;36.99;98539.77;105058;1271;73424;-75
2022/06/25 08:22:40;;;;;;;5.30;3.30;;;;;;;28.86;36.60;98543.35;105234;1271;69236;-74
2022/06/25 08:25:07;;;;;;;4.20;3.30;;;;;;;28.78;36.99;98544.86;105004;1271;73220;-77
2022/06/25 08:27:44;;;;;;;3.30;3.00;;;;;;;28.87;37.31;98543.76;105273;1271;61327;-75
2022/06/25 08:30:11;;;;;;;4.00;3.70;;;;;;;28.89;36.55;98544.63;105492;1271;61147;-74
2022/06/25 08:32:37;;;;;;;4.60;3.10;;;;;;;28.81;36.71;98544.64;105267;1271;76162;-73
2022/06/25 08:35:04;;;;;;;5.00;3.70;;;;;;;28.97;37.16;98542.88;104992;1271;70103;-75
2022/06/25 08:37:31;;;;;;;3.90;3.60;;;;;;;29.10;37.47;98541.31;105210;1271;74596;-77
2022/06/25 08:39:57;;;;;;;4.80;3.70;;;;;;;29.31;37.78;98540.61;105242;1271;61421;-75
2022/06/25 08:42:24;;;;;;;3.30;3.00;;;;;;;29.49;37.42;98542.23;105237;1271;61324;-76
2022/06/25 08:44:50;;;;;;;3.20;2.70;;;;;;;29.47;36.44;98544.76;105243;1271;61241;-75
2022/06/25 08:47:17;;;;;;;3.40;2.90;;;;;;;29.46;36.50;98538.90;105259;1271;70183;-75
2022/06/25 08:49:44;;;;;;;3.30;2.90;;;;;;;29.55;36.81;98545.30;105232;1271;74367;-75
2022/06/25 08:52:14;;;;;;;3.90;3.50;;;;;;;29.64;36.75;98544.15;105241;1271;61252;-76
2022/06/25 08:54:42;;;;;;;4.50;4.20;;;;;;;29.67;36.12;98544.27;105060;1271;61276;-76
2022/06/25 08:57:08;;;;;;;6.50;3.60;;;;;;;29.49;36.20;98542.02;105204;1271;75678;-75
2022/06/25 08:59:36;;;;;;;3.40;3.20;;;;;;;29.45;36.56;98545.09;105252;1271;70224;-75
2022/06/25 09:02:03;;;;;;;5.50;4.00;;;;;;;29.44;36.48;98546.23;105054;1271;73391;-75
2022/06/25 09:04:30;;;;;;;3.40;3.20;;;;;;;29.50;36.66;98543.95;105236;1270;61205;-74
2022/06/25 09:07:14;;;;;;;3.60;3.20;;;;;;;29.60;36.45;98546.52;105247;1271;61837;-74
2022/06/25 09:09:46;;;;;;;3.40;3.10;;;;;;;29.62;35.77;98544.30;105040;1271;76838;-74
2022/06/25 09:12:15;;;;;;;3.40;2.50;;;;;;;29.68;35.55;98546.24;105052;1271;69156;-74
2022/06/25 09:14:42;;;;;;;3.00;2.80;;;;;;;29.79;34.84;98544.59;105271;1271;72317;-74
2022/06/25 09:17:12;;;;;;;3.70;3.40;;;;;;;29.90;34.95;98543.64;105272;1271;61253;-75
2022/06/25 09:19:47;;;;;;;3.60;3.30;;;;;;;29.99;35.30;98541.44;105317;1271;61259;-75
2022/06/25 09:22:15;;;;;;;3.90;2.40;;;;;;;30.14;34.58;98537.27;105024;1271;75477;-75
2022/06/25 09:25:02;;;;;;;2.90;2.20;;;;;;;30.14;33.68;98538.08;105252;1271;69421;-75
2022/06/25 09:27:28;;;;;;;2.30;2.10;;;;;;;30.13;32.22;98532.00;105223;1271;73537;-76
2022/06/25 09:29:55;;;;;;;4.10;2.50;;;;;;;30.14;32.33;98531.27;105212;1271;61304;-76
2022/06/25 09:32:21;;;;;;;4.00;2.60;;;;;;;30.36;33.11;98534.09;105242;1271;61362;-75
2022/06/25 09:34:48;;;;;;;3.20;1.80;;;;;;;30.56;32.55;98531.81;105253;1271;61304;-76
2022/06/25 09:37:20;;;;;;;4.10;1.70;;;;;;;30.70;31.55;98534.23;105257;1271;61303;-75
2022/06/25 09:39:48;;;;;;;1.60;1.50;;;;;;;30.80;30.70;98535.88;105282;1271;75286;-74
2022/06/25 09:42:28;;;;;;;2.10;2.00;;;;;;;30.94;30.47;98536.98;105285;1271;61403;-74
2022/06/25 09:45:06;;;;;;;3.10;2.10;;;;;;;31.12;30.06;98533.48;104947;1271;61492;-74
2022/06/25 09:47:36;;;;;;;2.40;2.20;;;;;;;31.11;30.12;98534.55;105207;1271;76226;-74
2022/06/25 09:50:03;;;;;;;6.60;2.80;;;;;;;31.11;29.63;98535.59;105352;1269;69259;-76
2022/06/25 09:52:30;;;;;;;2.60;2.40;;;;;;;31.04;29.76;98539.98;105196;1271;74309;-76
2022/06/25 09:54:57;;;;;;;4.60;2.90;;;;;;;30.99;30.19;98538.34;105257;1271;61269;-75
2022/06/25 09:57:25;;;;;;;3.70;3.00;;;;;;;30.94;30.10;98536.94;105261;1269;61818;-75
2022/06/25 09:59:55;;;;;;;3.70;3.40;;;;;;;30.88;30.82;98536.65;105253;1271;75071;-75
2022/06/25 10:02:24;;;;;;;;;;;;;;;31.03;31.44;98535.46;105256;1271;69791;-75
2022/06/25 10:04:51;;;;;;;4.00;2.40;;;;;;;31.24;31.72;98531.81;105079;1271;73114;-80
2022/06/25 10:07:59;;;;;;;3.30;2.70;;;;;;;31.45;31.29;98533.80;105017;1271;61320;-76
2022/06/25 10:10:10;;;;;;;2.40;2.20;;;;;;;31.53;30.66;98530.97;104917;1271;61291;-77
2022/06/25 10:12:37;;;;;;;2.70;2.40;;;;;;;31.53;30.97;98530.96;105210;1271;74049;-77
2022/06/25 10:15:04;;;;;;;2.70;2.50;;;;;;;31.56;30.46;98532.67;105105;1271;70219;-76
2022/06/25 10:17:30;;;;;;;2.60;2.30;;;;;;;31.50;30.41;98532.02;104956;1271;73421;-77
2022/06/25 10:19:58;;;;;;;4.30;2.10;;;;;;;31.58;30.85;98528.07;105057;1271;61418;-76
2022/06/25 10:22:24;;;;;;;2.90;2.20;;;;;;;31.68;30.27;98530.94;105376;1271;61266;-78
2022/06/25 10:24:51;;;;;;;1.90;1.80;;;;;;;31.66;29.51;98531.52;105253;1270;75142;-77
2022/06/25 10:27:20;;;;;;;3.70;2.10;;;;;;;31.58;29.18;98528.50;105258;1270;68286;-75
2022/06/25 10:29:57;;;;;;;3.10;1.80;;;;;;;31.42;29.74;98534.36;105249;1270;71639;-76
2022/06/25 10:32:25;;;;;;;2.50;2.10;;;;;;;31.39;29.32;98540.43;105249;1270;61480;-76
2022/06/25 10:35:01;;;;;;;1.70;1.60;;;;;;;31.49;29.25;98537.02;105281;1271;61321;-75
2022/06/25 10:37:58;;;;;;;2.20;2.10;;;;;;;31.56;28.97;98534.66;105189;1271;72296;-76
2022/06/25 10:40:24;;;;;;;4.10;2.00;;;;;;;31.57;29.58;98527.05;105288;1271;70320;-77
2022/06/25 10:43:00;;;;;;;2.40;1.70;;;;;;;31.71;29.81;98524.75;105236;1270;74202;-75
2022/06/25 10:45:26;;;;;;;1.80;1.50;;;;;;;31.85;29.27;98526.67;105265;1271;61383;-75
2022/06/25 10:47:57;;;;;;;2.10;1.90;;;;;;;31.87;28.58;98526.61;105240;1271;61185;-76
2022/06/25 10:50:25;;;;;;;2.90;1.40;;;;;;;31.94;29.05;98522.64;105078;1271;74668;-76
2022/06/25 10:53:03;;;;;;;2.00;1.60;;;;;;;32.04;28.62;98523.06;105261;1271;69262;-76
2022/06/25 10:55:34;;;;;;;2.80;2.00;;;;;;;32.20;28.81;98521.31;105279;1270;73130;-76
2022/06/25 10:58:13;;;;;;;2.70;2.60;;;;;;;32.38;28.62;98521.60;105286;1271;61320;-75
2022/06/25 11:00:49;;;;;;;2.20;1.70;;;;;;;32.31;27.80;98516.48;105268;1271;61387;-76
2022/06/25 11:03:18;;;;;;;2.00;1.70;;;;;;;32.29;28.22;98516.26;105252;1271;75065;-76
2022/06/25 11:05:45;;;;;;;2.00;1.80;;;;;;;32.22;27.90;98519.51;105434;1270;69360;-75
2022/06/25 11:08:12;;;;;;;3.30;2.50;;;;;;;32.07;28.12;98518.88;105237;1269;72734;-75
2022/06/25 11:10:40;;;;;;;2.30;2.10;;;;;;;31.94;28.28;98519.89;105246;1271;61405;-77
2022/06/25 11:13:09;;;;;;;2.20;2.00;;;;;;;31.83;28.45;98517.48;105245;1271;61376;-76
2022/06/25 11:15:40;;;;;;;3.30;1.90;;;;;;;31.66;28.80;98521.36;105251;1271;76158;-76
2022/06/25 11:18:08;;;;;;;2.20;1.90;;;;;;;31.58;29.00;98519.25;105268;1271;69299;-77
2022/06/25 11:20:36;;;;;;;3.00;2.30;;;;;;;31.56;29.84;98518.94;105354;1271;73332;-75
2022/06/25 11:23:03;;;;;;;1.90;1.80;;;;;;;31.59;30.01;98516.14;105391;1271;61299;-76
2022/06/25 11:28:51;;;;;;;3.50;1.80;;;;;;;31.77;29.10;98516.19;105257;1271;76189;-75
2022/06/25 11:31:24;;;;;;;1.80;1.50;;;;;;;31.94;29.07;98514.48;105235;1268;69178;-75
2022/06/25 11:33:53;;;;;;;4.60;1.60;;;;;;;32.08;28.42;98513.52;105174;1271;74353;-75
2022/06/25 11:36:20;;;;;;;1.80;1.70;;;;;;;32.25;28.79;98512.71;105317;1271;61272;-75